sensor_id;sensor_type;location;lat;lon;timestamp;temperature;humidity
324;DHT22;149;51.094;17.002;2023-11-18T00:01:15;4.00;99.90
324;DHT22;149;51.094;17.002;2023-11-18T00:03:42;4.00;99.90
324;DHT22;149;51.094;17.002;2023-11-18T00:06:09;4.00;99.90
324;DHT22;149;51.094;17.002;2023-11-18T00:08:36;4.00;99.90
324;DHT22;149;51.094;17.002;2023-11-18T00:11:03;4.00;99.90
324;DHT22;149;51.094;17.002;2023-11-18T00:13:31;4.00;99.90
324;DHT22;149;51.094;17.002;2023-11-18T00:16:00;4.00;99.90
324;DHT22;149;51.094;17.002;2023-11-18T00:18:28;4.00;99.90
324;DHT22;149;51.094;17.002;2023-11-18T00:20:54;4.00;99.90
324;DHT22;149;51.094;17.002;2023-11-18T00:23:24;4.00;99.90
324;DHT22;149;51.094;17.002;2023-11-18T00:25:56;4.00;99.90
324;DHT22;149;51.094;17.002;2023-11-18T00:28:24;4.00;99.90
324;DHT22;149;51.094;17.002;2023-11-18T00:30:51;4.10;99.90
324;DHT22;149;51.094;17.002;2023-11-18T00:33:18;4.20;99.90
324;DHT22;149;51.094;17.002;2023-11-18T00:35:47;4.00;99.90
324;DHT22;149;51.094;17.002;2023-11-18T00:38:14;4.00;99.90
324;DHT22;149;51.094;17.002;2023-11-18T00:40:43;4.10;99.90
324;DHT22;149;51.094;17.002;2023-11-18T00:43:13;4.00;99.90
324;DHT22;149;51.094;17.002;2023-11-18T00:45:40;4.00;99.90
324;DHT22;149;51.094;17.002;2023-11-18T00:48:10;4.00;99.90
324;DHT22;149;51.094;17.002;2023-11-18T00:50:37;4.00;99.90
324;DHT22;149;51.094;17.002;2023-11-18T00:53:04;3.90;99.90
324;DHT22;149;51.094;17.002;2023-11-18T00:55:32;3.90;99.90
324;DHT22;149;51.094;17.002;2023-11-18T00:57:59;3.90;99.90
324;DHT22;149;51.094;17.002;2023-11-18T01:00:26;3.90;99.90
324;DHT22;149;51.094;17.002;2023-11-18T01:02:53;4.00;99.90
324;DHT22;149;51.094;17.002;2023-11-18T01:05:21;4.00;99.90
324;DHT22;149;51.094;17.002;2023-11-18T01:07:49;3.90;99.90
324;DHT22;149;51.094;17.002;2023-11-18T01:10:16;3.90;99.90
324;DHT22;149;51.094;17.002;2023-11-18T01:12:45;3.80;99.90
324;DHT22;149;51.094;17.002;2023-11-18T01:15:13;3.80;99.90
324;DHT22;149;51.094;17.002;2023-11-18T01:17:41;3.80;99.90
324;DHT22;149;51.094;17.002;2023-11-18T01:20:09;3.60;99.90
324;DHT22;149;51.094;17.002;2023-11-18T01:22:38;3.70;99.90
324;DHT22;149;51.094;17.002;2023-11-18T01:25:06;3.70;99.90
324;DHT22;149;51.094;17.002;2023-11-18T01:27:35;3.70;99.90
324;DHT22;149;51.094;17.002;2023-11-18T01:30:02;3.70;99.90
324;DHT22;149;51.094;17.002;2023-11-18T01:32:31;3.70;99.90
324;DHT22;149;51.094;17.002;2023-11-18T01:34:58;3.70;99.90
324;DHT22;149;51.094;17.002;2023-11-18T01:37:25;3.70;99.90
324;DHT22;149;51.094;17.002;2023-11-18T01:39:52;3.70;99.90
324;DHT22;149;51.094;17.002;2023-11-18T01:42:20;3.70;99.90
324;DHT22;149;51.094;17.002;2023-11-18T01:44:48;3.70;99.90
324;DHT22;149;51.094;17.002;2023-11-18T01:47:15;3.60;99.90
324;DHT22;149;51.094;17.002;2023-11-18T01:49:43;3.70;99.90
324;DHT22;149;51.094;17.002;2023-11-18T01:52:10;3.60;99.90
324;DHT22;149;51.094;17.002;2023-11-18T01:54:39;3.60;99.90
324;DHT22;149;51.094;17.002;2023-11-18T01:57:06;3.60;99.90
324;DHT22;149;51.094;17.002;2023-11-18T01:59:36;3.60;99.90
324;DHT22;149;51.094;17.002;2023-11-18T02:02:07;3.50;99.90
324;DHT22;149;51.094;17.002;2023-11-18T02:04:35;3.40;99.90
324;DHT22;149;51.094;17.002;2023-11-18T02:07:02;3.50;99.90
324;DHT22;149;51.094;17.002;2023-11-18T02:09:36;3.70;99.90
324;DHT22;149;51.094;17.002;2023-11-18T02:14:43;3.50;99.90
324;DHT22;149;51.094;17.002;2023-11-18T02:17:18;3.50;99.90
324;DHT22;149;51.094;17.002;2023-11-18T02:19:47;3.50;99.90
324;DHT22;149;51.094;17.002;2023-11-18T02:22:15;3.50;99.90
324;DHT22;149;51.094;17.002;2023-11-18T02:24:42;3.50;99.90
324;DHT22;149;51.094;17.002;2023-11-18T02:27:10;3.50;99.90
324;DHT22;149;51.094;17.002;2023-11-18T02:29:43;3.50;99.90
324;DHT22;149;51.094;17.002;2023-11-18T02:32:23;3.30;99.90
324;DHT22;149;51.094;17.002;2023-11-18T02:35:02;3.50;99.90
324;DHT22;149;51.094;17.002;2023-11-18T02:37:33;3.40;99.90
324;DHT22;149;51.094;17.002;2023-11-18T02:40:04;3.40;99.90
324;DHT22;149;51.094;17.002;2023-11-18T02:42:36;3.40;99.90
324;DHT22;149;51.094;17.002;2023-11-18T02:45:07;3.40;99.90
324;DHT22;149;51.094;17.002;2023-11-18T02:47:35;3.40;99.90
324;DHT22;149;51.094;17.002;2023-11-18T02:50:02;3.60;99.90
324;DHT22;149;51.094;17.002;2023-11-18T02:52:32;3.40;99.90
324;DHT22;149;51.094;17.002;2023-11-18T02:55:06;3.60;99.90
324;DHT22;149;51.094;17.002;2023-11-18T02:57:36;3.40;99.90
324;DHT22;149;51.094;17.002;2023-11-18T03:00:07;3.40;99.90
324;DHT22;149;51.094;17.002;2023-11-18T03:02:44;3.40;99.90
324;DHT22;149;51.094;17.002;2023-11-18T03:05:12;3.50;99.90
324;DHT22;149;51.094;17.002;2023-11-18T03:07:41;3.50;99.90
324;DHT22;149;51.094;17.002;2023-11-18T03:10:10;3.50;99.90
324;DHT22;149;51.094;17.002;2023-11-18T03:12:43;3.50;99.90
324;DHT22;149;51.094;17.002;2023-11-18T03:15:10;3.40;99.90
324;DHT22;149;51.094;17.002;2023-11-18T03:17:38;3.40;99.90
324;DHT22;149;51.094;17.002;2023-11-18T03:20:06;3.40;99.90
324;DHT22;149;51.094;17.002;2023-11-18T03:22:34;3.30;99.90
324;DHT22;149;51.094;17.002;2023-11-18T03:25:01;3.40;99.90
324;DHT22;149;51.094;17.002;2023-11-18T03:27:29;3.50;99.90
324;DHT22;149;51.094;17.002;2023-11-18T03:29:56;3.30;99.90
324;DHT22;149;51.094;17.002;2023-11-18T03:32:23;3.20;99.90
324;DHT22;149;51.094;17.002;2023-11-18T03:34:50;3.20;99.90
324;DHT22;149;51.094;17.002;2023-11-18T03:37:17;3.20;99.90
324;DHT22;149;51.094;17.002;2023-11-18T03:39:45;3.10;99.90
324;DHT22;149;51.094;17.002;2023-11-18T03:42:12;3.10;99.90
324;DHT22;149;51.094;17.002;2023-11-18T03:44:39;3.00;99.90
324;DHT22;149;51.094;17.002;2023-11-18T03:47:06;3.00;99.90
324;DHT22;149;51.094;17.002;2023-11-18T03:49:36;3.00;99.90
324;DHT22;149;51.094;17.002;2023-11-18T03:52:03;3.10;99.90
324;DHT22;149;51.094;17.002;2023-11-18T03:54:31;3.10;99.90
324;DHT22;149;51.094;17.002;2023-11-18T03:56:58;3.10;99.90
324;DHT22;149;51.094;17.002;2023-11-18T03:59:26;3.00;99.90
324;DHT22;149;51.094;17.002;2023-11-18T04:01:53;3.10;99.90
324;DHT22;149;51.094;17.002;2023-11-18T04:04:20;3.10;99.90
324;DHT22;149;51.094;17.002;2023-11-18T04:06:47;3.10;99.90
324;DHT22;149;51.094;17.002;2023-11-18T04:09:14;3.10;99.90
324;DHT22;149;51.094;17.002;2023-11-18T04:11:43;3.10;99.90
324;DHT22;149;51.094;17.002;2023-11-18T04:14:14;3.10;99.90
324;DHT22;149;51.094;17.002;2023-11-18T04:16:41;3.20;99.90
324;DHT22;149;51.094;17.002;2023-11-18T04:19:08;3.10;99.90
324;DHT22;149;51.094;17.002;2023-11-18T04:24:06;3.20;99.90
324;DHT22;149;51.094;17.002;2023-11-18T04:26:34;3.20;99.90
324;DHT22;149;51.094;17.002;2023-11-18T04:29:03;3.20;99.90
324;DHT22;149;51.094;17.002;2023-11-18T04:31:31;3.30;99.90
324;DHT22;149;51.094;17.002;2023-11-18T04:34:05;3.40;99.90
324;DHT22;149;51.094;17.002;2023-11-18T04:36:32;3.20;99.90
324;DHT22;149;51.094;17.002;2023-11-18T04:38:59;3.20;99.90
324;DHT22;149;51.094;17.002;2023-11-18T04:41:27;3.20;99.90
324;DHT22;149;51.094;17.002;2023-11-18T04:43:54;3.10;99.90
324;DHT22;149;51.094;17.002;2023-11-18T04:46:22;3.20;99.90
324;DHT22;149;51.094;17.002;2023-11-18T04:48:49;3.10;99.90
324;DHT22;149;51.094;17.002;2023-11-18T04:51:16;3.10;99.90
324;DHT22;149;51.094;17.002;2023-11-18T04:53:44;3.10;99.90
324;DHT22;149;51.094;17.002;2023-11-18T04:56:12;3.10;99.90
324;DHT22;149;51.094;17.002;2023-11-18T04:58:40;3.10;99.90
324;DHT22;149;51.094;17.002;2023-11-18T05:01:07;3.10;99.90
324;DHT22;149;51.094;17.002;2023-11-18T05:03:35;3.20;99.90
324;DHT22;149;51.094;17.002;2023-11-18T05:06:03;3.10;99.90
324;DHT22;149;51.094;17.002;2023-11-18T05:08:31;3.10;99.90
324;DHT22;149;51.094;17.002;2023-11-18T05:11:02;3.20;99.90
324;DHT22;149;51.094;17.002;2023-11-18T05:13:31;3.20;99.90
324;DHT22;149;51.094;17.002;2023-11-18T05:21:22;3.20;99.90
324;DHT22;149;51.094;17.002;2023-11-18T05:23:52;3.20;99.90
324;DHT22;149;51.094;17.002;2023-11-18T05:26:20;3.10;99.90
324;DHT22;149;51.094;17.002;2023-11-18T05:28:46;3.20;99.90
324;DHT22;149;51.094;17.002;2023-11-18T05:31:16;3.20;99.90
324;DHT22;149;51.094;17.002;2023-11-18T05:33:44;3.20;99.90
324;DHT22;149;51.094;17.002;2023-11-18T05:38:52;3.20;99.90
324;DHT22;149;51.094;17.002;2023-11-18T05:41:20;3.20;99.90
324;DHT22;149;51.094;17.002;2023-11-18T05:43:56;3.20;99.90
324;DHT22;149;51.094;17.002;2023-11-18T05:46:26;3.20;99.90
324;DHT22;149;51.094;17.002;2023-11-18T05:49:02;3.30;99.90
324;DHT22;149;51.094;17.002;2023-11-18T05:51:34;3.20;99.90
324;DHT22;149;51.094;17.002;2023-11-18T05:54:07;3.20;99.90
324;DHT22;149;51.094;17.002;2023-11-18T05:56:34;3.20;99.90
324;DHT22;149;51.094;17.002;2023-11-18T05:59:02;3.20;99.90
324;DHT22;149;51.094;17.002;2023-11-18T06:01:32;3.20;99.90
324;DHT22;149;51.094;17.002;2023-11-18T06:03:59;3.20;99.90
324;DHT22;149;51.094;17.002;2023-11-18T06:06:28;3.20;99.90
324;DHT22;149;51.094;17.002;2023-11-18T06:09:01;3.10;99.90
324;DHT22;149;51.094;17.002;2023-11-18T06:11:49;3.20;99.90
324;DHT22;149;51.094;17.002;2023-11-18T06:14:16;3.10;99.90
324;DHT22;149;51.094;17.002;2023-11-18T06:16:43;3.10;99.90
324;DHT22;149;51.094;17.002;2023-11-18T06:21:53;3.10;99.90
324;DHT22;149;51.094;17.002;2023-11-18T06:27:02;3.10;99.90
324;DHT22;149;51.094;17.002;2023-11-18T06:29:29;3.10;99.90
324;DHT22;149;51.094;17.002;2023-11-18T06:31:57;3.10;99.90
324;DHT22;149;51.094;17.002;2023-11-18T06:34:24;2.90;99.90
324;DHT22;149;51.094;17.002;2023-11-18T06:36:53;2.90;99.90
324;DHT22;149;51.094;17.002;2023-11-18T06:39:20;2.90;99.90
324;DHT22;149;51.094;17.002;2023-11-18T06:41:52;2.90;99.90
324;DHT22;149;51.094;17.002;2023-11-18T06:44:20;3.00;99.90
324;DHT22;149;51.094;17.002;2023-11-18T06:46:50;3.00;99.90
324;DHT22;149;51.094;17.002;2023-11-18T06:49:18;3.00;99.90
324;DHT22;149;51.094;17.002;2023-11-18T06:51:46;3.10;99.90
324;DHT22;149;51.094;17.002;2023-11-18T06:54:14;3.10;99.90
324;DHT22;149;51.094;17.002;2023-11-18T06:56:42;3.00;99.90
324;DHT22;149;51.094;17.002;2023-11-18T06:59:11;3.20;99.90
324;DHT22;149;51.094;17.002;2023-11-18T07:01:41;2.90;99.90
324;DHT22;149;51.094;17.002;2023-11-18T07:04:11;3.10;99.90
324;DHT22;149;51.094;17.002;2023-11-18T07:06:38;3.20;99.90
324;DHT22;149;51.094;17.002;2023-11-18T07:11:35;3.20;99.90
324;DHT22;149;51.094;17.002;2023-11-18T07:14:03;3.10;99.90
324;DHT22;149;51.094;17.002;2023-11-18T07:16:31;3.20;99.90
324;DHT22;149;51.094;17.002;2023-11-18T07:18:58;3.30;99.90
324;DHT22;149;51.094;17.002;2023-11-18T07:21:26;3.20;99.90
324;DHT22;149;51.094;17.002;2023-11-18T07:23:53;3.20;99.90
324;DHT22;149;51.094;17.002;2023-11-18T07:26:25;3.30;99.90
324;DHT22;149;51.094;17.002;2023-11-18T07:28:55;3.30;99.90
324;DHT22;149;51.094;17.002;2023-11-18T07:31:23;3.30;99.90
324;DHT22;149;51.094;17.002;2023-11-18T07:33:51;3.30;99.90
324;DHT22;149;51.094;17.002;2023-11-18T07:36:19;3.40;99.90
324;DHT22;149;51.094;17.002;2023-11-18T07:38:49;3.50;99.90
324;DHT22;149;51.094;17.002;2023-11-18T07:41:20;3.50;99.90
324;DHT22;149;51.094;17.002;2023-11-18T07:43:58;3.50;99.90
324;DHT22;149;51.094;17.002;2023-11-18T07:46:26;3.50;99.90
324;DHT22;149;51.094;17.002;2023-11-18T07:48:55;3.60;99.90
324;DHT22;149;51.094;17.002;2023-11-18T07:51:24;3.60;99.90
324;DHT22;149;51.094;17.002;2023-11-18T07:53:51;3.60;99.90
324;DHT22;149;51.094;17.002;2023-11-18T07:56:20;3.70;99.90
324;DHT22;149;51.094;17.002;2023-11-18T07:58:50;3.60;99.90
324;DHT22;149;51.094;17.002;2023-11-18T08:01:20;3.50;99.90
324;DHT22;149;51.094;17.002;2023-11-18T08:03:51;3.70;99.90
324;DHT22;149;51.094;17.002;2023-11-18T08:06:20;3.80;99.90
324;DHT22;149;51.094;17.002;2023-11-18T08:08:50;3.80;99.90
324;DHT22;149;51.094;17.002;2023-11-18T08:11:16;3.80;99.90
324;DHT22;149;51.094;17.002;2023-11-18T08:16:18;4.00;99.90
324;DHT22;149;51.094;17.002;2023-11-18T08:18:46;4.00;99.90
324;DHT22;149;51.094;17.002;2023-11-18T08:21:15;4.00;99.90
324;DHT22;149;51.094;17.002;2023-11-18T08:23:43;4.00;99.90
324;DHT22;149;51.094;17.002;2023-11-18T08:26:11;4.10;99.90
324;DHT22;149;51.094;17.002;2023-11-18T08:28:38;3.90;99.90
324;DHT22;149;51.094;17.002;2023-11-18T08:31:06;4.00;99.90
324;DHT22;149;51.094;17.002;2023-11-18T08:33:34;4.30;99.90
324;DHT22;149;51.094;17.002;2023-11-18T08:36:01;4.40;99.90
324;DHT22;149;51.094;17.002;2023-11-18T08:38:29;5.80;99.90
324;DHT22;149;51.094;17.002;2023-11-18T08:40:56;5.00;99.90
324;DHT22;149;51.094;17.002;2023-11-18T08:43:23;4.50;99.90
324;DHT22;149;51.094;17.002;2023-11-18T08:45:52;4.60;99.90
324;DHT22;149;51.094;17.002;2023-11-18T08:48:25;4.60;99.90
324;DHT22;149;51.094;17.002;2023-11-18T08:50:53;4.50;99.90
324;DHT22;149;51.094;17.002;2023-11-18T08:53:20;4.60;99.90
324;DHT22;149;51.094;17.002;2023-11-18T08:55:53;4.60;99.90
324;DHT22;149;51.094;17.002;2023-11-18T08:58:23;4.30;99.90
324;DHT22;149;51.094;17.002;2023-11-18T09:00:57;4.20;99.90
324;DHT22;149;51.094;17.002;2023-11-18T09:03:33;4.20;99.90
324;DHT22;149;51.094;17.002;2023-11-18T09:06:06;4.20;99.90
324;DHT22;149;51.094;17.002;2023-11-18T09:08:47;4.20;99.90
324;DHT22;149;51.094;17.002;2023-11-18T09:11:22;4.30;99.90
324;DHT22;149;51.094;17.002;2023-11-18T09:13:50;4.20;99.90
324;DHT22;149;51.094;17.002;2023-11-18T09:16:21;4.10;99.90
324;DHT22;149;51.094;17.002;2023-11-18T09:18:49;4.10;99.90
324;DHT22;149;51.094;17.002;2023-11-18T09:21:18;4.20;99.90
324;DHT22;149;51.094;17.002;2023-11-18T09:23:50;4.20;99.90
324;DHT22;149;51.094;17.002;2023-11-18T09:26:18;4.10;99.90
324;DHT22;149;51.094;17.002;2023-11-18T09:28:45;4.10;99.90
324;DHT22;149;51.094;17.002;2023-11-18T09:31:12;4.10;99.90
324;DHT22;149;51.094;17.002;2023-11-18T09:33:41;4.10;99.90
324;DHT22;149;51.094;17.002;2023-11-18T09:36:14;4.20;99.90
324;DHT22;149;51.094;17.002;2023-11-18T09:38:41;4.20;99.90
324;DHT22;149;51.094;17.002;2023-11-18T09:41:10;4.30;99.90
324;DHT22;149;51.094;17.002;2023-11-18T09:43:41;4.30;99.90
324;DHT22;149;51.094;17.002;2023-11-18T09:48:52;4.30;99.90
324;DHT22;149;51.094;17.002;2023-11-18T09:51:20;4.30;99.90
324;DHT22;149;51.094;17.002;2023-11-18T09:53:51;4.30;99.90
324;DHT22;149;51.094;17.002;2023-11-18T10:01:56;4.20;99.90
324;DHT22;149;51.094;17.002;2023-11-18T10:04:24;4.30;99.90
324;DHT22;149;51.094;17.002;2023-11-18T10:06:57;4.40;99.90
324;DHT22;149;51.094;17.002;2023-11-18T10:09:24;4.40;99.90
324;DHT22;149;51.094;17.002;2023-11-18T10:12:09;4.40;99.90
324;DHT22;149;51.094;17.002;2023-11-18T10:14:41;4.50;99.90
324;DHT22;149;51.094;17.002;2023-11-18T10:17:11;4.40;99.90
324;DHT22;149;51.094;17.002;2023-11-18T10:19:53;4.70;99.90
324;DHT22;149;51.094;17.002;2023-11-18T10:22:25;4.50;99.90
324;DHT22;149;51.094;17.002;2023-11-18T10:24:54;4.50;99.90
324;DHT22;149;51.094;17.002;2023-11-18T10:27:26;4.40;99.90
324;DHT22;149;51.094;17.002;2023-11-18T10:29:57;4.60;99.90
324;DHT22;149;51.094;17.002;2023-11-18T10:32:28;4.60;99.90
324;DHT22;149;51.094;17.002;2023-11-18T10:34:57;4.60;99.90
324;DHT22;149;51.094;17.002;2023-11-18T10:37:27;4.60;99.90
324;DHT22;149;51.094;17.002;2023-11-18T10:40:03;4.60;99.90
324;DHT22;149;51.094;17.002;2023-11-18T10:42:31;4.60;99.90
324;DHT22;149;51.094;17.002;2023-11-18T10:45:00;4.60;99.90
324;DHT22;149;51.094;17.002;2023-11-18T10:47:34;4.80;99.90
324;DHT22;149;51.094;17.002;2023-11-18T10:50:06;4.70;99.90
324;DHT22;149;51.094;17.002;2023-11-18T10:52:37;4.70;99.90
324;DHT22;149;51.094;17.002;2023-11-18T10:55:13;4.80;99.90
324;DHT22;149;51.094;17.002;2023-11-18T10:57:48;4.80;99.90
324;DHT22;149;51.094;17.002;2023-11-18T11:00:15;5.10;99.90
324;DHT22;149;51.094;17.002;2023-11-18T11:02:46;5.00;99.90
324;DHT22;149;51.094;17.002;2023-11-18T11:05:29;5.00;99.90
324;DHT22;149;51.094;17.002;2023-11-18T11:08:02;5.00;99.90
324;DHT22;149;51.094;17.002;2023-11-18T11:10:32;4.90;99.90
324;DHT22;149;51.094;17.002;2023-11-18T11:13:01;4.90;99.90
324;DHT22;149;51.094;17.002;2023-11-18T11:15:30;5.00;99.90
324;DHT22;149;51.094;17.002;2023-11-18T11:18:20;4.90;99.90
324;DHT22;149;51.094;17.002;2023-11-18T11:21:02;5.20;99.90
324;DHT22;149;51.094;17.002;2023-11-18T11:23:53;5.10;99.90
324;DHT22;149;51.094;17.002;2023-11-18T11:26:45;5.20;99.90
324;DHT22;149;51.094;17.002;2023-11-18T11:29:38;5.20;99.90
324;DHT22;149;51.094;17.002;2023-11-18T11:32:21;5.10;99.90
324;DHT22;149;51.094;17.002;2023-11-18T11:34:56;5.20;99.90
324;DHT22;149;51.094;17.002;2023-11-18T11:37:29;5.30;99.90
324;DHT22;149;51.094;17.002;2023-11-18T11:39:57;5.40;99.90
324;DHT22;149;51.094;17.002;2023-11-18T11:42:31;5.60;99.90
324;DHT22;149;51.094;17.002;2023-11-18T11:45:04;5.70;99.90
324;DHT22;149;51.094;17.002;2023-11-18T11:47:35;5.50;99.90
324;DHT22;149;51.094;17.002;2023-11-18T11:52:48;5.40;99.90
324;DHT22;149;51.094;17.002;2023-11-18T11:55:41;5.40;99.90
324;DHT22;149;51.094;17.002;2023-11-18T11:58:33;5.30;99.90
324;DHT22;149;51.094;17.002;2023-11-18T12:01:27;5.20;99.90
324;DHT22;149;51.094;17.002;2023-11-18T12:04:24;5.20;99.90
324;DHT22;149;51.094;17.002;2023-11-18T12:06:56;5.20;99.90
324;DHT22;149;51.094;17.002;2023-11-18T12:09:38;5.40;99.90
324;DHT22;149;51.094;17.002;2023-11-18T12:12:05;5.40;99.90
324;DHT22;149;51.094;17.002;2023-11-18T12:14:58;5.20;99.90
324;DHT22;149;51.094;17.002;2023-11-18T12:20:44;5.10;99.90
324;DHT22;149;51.094;17.002;2023-11-18T12:23:17;5.00;99.90
324;DHT22;149;51.094;17.002;2023-11-18T12:25:45;4.90;99.90
324;DHT22;149;51.094;17.002;2023-11-18T12:28:25;5.20;99.90
324;DHT22;149;51.094;17.002;2023-11-18T12:30:55;4.80;99.90
324;DHT22;149;51.094;17.002;2023-11-18T12:36:50;4.90;99.90
324;DHT22;149;51.094;17.002;2023-11-18T12:42:07;4.70;99.90
324;DHT22;149;51.094;17.002;2023-11-18T12:50:41;4.70;99.90
324;DHT22;149;51.094;17.002;2023-11-18T12:56:00;4.70;99.90
324;DHT22;149;51.094;17.002;2023-11-18T12:58:30;4.70;99.90
324;DHT22;149;51.094;17.002;2023-11-18T13:06:24;4.80;99.90
324;DHT22;149;51.094;17.002;2023-11-18T13:14:12;4.80;99.90
324;DHT22;149;51.094;17.002;2023-11-18T13:19:24;4.80;99.90
324;DHT22;149;51.094;17.002;2023-11-18T13:24:30;4.60;99.90
324;DHT22;149;51.094;17.002;2023-11-18T13:32:17;4.70;99.90
324;DHT22;149;51.094;17.002;2023-11-18T13:50:56;4.70;99.90
324;DHT22;149;51.094;17.002;2023-11-18T13:56:08;4.80;99.90
324;DHT22;149;51.094;17.002;2023-11-18T14:01:18;4.80;99.90
324;DHT22;149;51.094;17.002;2023-11-18T14:06:30;4.70;99.90
324;DHT22;149;51.094;17.002;2023-11-18T14:33:26;4.40;99.90
324;DHT22;149;51.094;17.002;2023-11-18T14:38:29;4.40;99.90
324;DHT22;149;51.094;17.002;2023-11-18T14:40:57;4.40;99.90
324;DHT22;149;51.094;17.002;2023-11-18T14:43:31;4.50;99.90
324;DHT22;149;51.094;17.002;2023-11-18T14:46:00;4.50;99.90
324;DHT22;149;51.094;17.002;2023-11-18T14:50:58;4.50;99.90
324;DHT22;149;51.094;17.002;2023-11-18T14:53:25;4.40;99.90
324;DHT22;149;51.094;17.002;2023-11-18T14:58:35;4.30;99.90
324;DHT22;149;51.094;17.002;2023-11-18T15:03:45;4.40;99.90
324;DHT22;149;51.094;17.002;2023-11-18T15:06:24;4.30;99.90
324;DHT22;149;51.094;17.002;2023-11-18T15:08:51;4.40;99.90
324;DHT22;149;51.094;17.002;2023-11-18T15:24:45;4.20;99.90
324;DHT22;149;51.094;17.002;2023-11-18T15:32:28;4.20;99.90
324;DHT22;149;51.094;17.002;2023-11-18T15:37:40;4.30;99.90
324;DHT22;149;51.094;17.002;2023-11-18T15:40:17;4.10;99.90
324;DHT22;149;51.094;17.002;2023-11-18T15:59:04;4.20;99.90
324;DHT22;149;51.094;17.002;2023-11-18T16:20:17;4.40;99.90
324;DHT22;149;51.094;17.002;2023-11-18T16:25:32;4.40;99.90
324;DHT22;149;51.094;17.002;2023-11-18T16:28:03;4.40;99.90
324;DHT22;149;51.094;17.002;2023-11-18T16:54:27;3.90;99.90
324;DHT22;149;51.094;17.002;2023-11-18T16:59:42;3.80;99.90
324;DHT22;149;51.094;17.002;2023-11-18T17:07:17;3.70;99.90
324;DHT22;149;51.094;17.002;2023-11-18T17:09:45;3.80;99.90
324;DHT22;149;51.094;17.002;2023-11-18T17:12:13;3.70;99.90
324;DHT22;149;51.094;17.002;2023-11-18T17:14:42;3.80;99.90
324;DHT22;149;51.094;17.002;2023-11-18T17:17:09;3.90;99.90
324;DHT22;149;51.094;17.002;2023-11-18T17:19:37;3.80;99.90
324;DHT22;149;51.094;17.002;2023-11-18T17:22:04;3.70;99.90
324;DHT22;149;51.094;17.002;2023-11-18T17:24:31;3.80;99.90
324;DHT22;149;51.094;17.002;2023-11-18T17:26:58;3.90;99.90
324;DHT22;149;51.094;17.002;2023-11-18T17:29:28;3.80;99.90
324;DHT22;149;51.094;17.002;2023-11-18T17:31:55;3.80;99.90
324;DHT22;149;51.094;17.002;2023-11-18T17:34:23;3.80;99.90
324;DHT22;149;51.094;17.002;2023-11-18T17:36:50;3.80;99.90
324;DHT22;149;51.094;17.002;2023-11-18T17:39:20;3.70;99.90
324;DHT22;149;51.094;17.002;2023-11-18T17:41:47;3.80;99.90
324;DHT22;149;51.094;17.002;2023-11-18T17:44:14;3.80;99.90
324;DHT22;149;51.094;17.002;2023-11-18T17:46:43;3.80;99.90
324;DHT22;149;51.094;17.002;2023-11-18T17:49:11;3.90;99.90
324;DHT22;149;51.094;17.002;2023-11-18T17:51:38;3.80;99.90
324;DHT22;149;51.094;17.002;2023-11-18T17:54:05;3.70;99.90
324;DHT22;149;51.094;17.002;2023-11-18T17:56:32;3.70;99.90
324;DHT22;149;51.094;17.002;2023-11-18T17:58:59;3.70;99.90
324;DHT22;149;51.094;17.002;2023-11-18T18:01:26;3.90;99.90
324;DHT22;149;51.094;17.002;2023-11-18T18:03:54;3.80;99.90
324;DHT22;149;51.094;17.002;2023-11-18T18:06:21;3.70;99.90
324;DHT22;149;51.094;17.002;2023-11-18T18:08:48;3.90;99.90
324;DHT22;149;51.094;17.002;2023-11-18T18:11:16;3.70;99.90
324;DHT22;149;51.094;17.002;2023-11-18T18:13:46;3.70;99.90
324;DHT22;149;51.094;17.002;2023-11-18T18:16:13;3.70;99.90
324;DHT22;149;51.094;17.002;2023-11-18T18:18:41;3.80;99.90
324;DHT22;149;51.094;17.002;2023-11-18T18:21:08;3.80;99.90
324;DHT22;149;51.094;17.002;2023-11-18T18:23:35;3.80;99.90
324;DHT22;149;51.094;17.002;2023-11-18T18:26:02;4.00;99.90
324;DHT22;149;51.094;17.002;2023-11-18T18:28:29;3.80;99.90
324;DHT22;149;51.094;17.002;2023-11-18T18:30:57;3.70;99.90
324;DHT22;149;51.094;17.002;2023-11-18T18:33:26;3.80;99.90
324;DHT22;149;51.094;17.002;2023-11-18T18:35:53;3.60;99.90
324;DHT22;149;51.094;17.002;2023-11-18T18:38:21;3.60;99.90
324;DHT22;149;51.094;17.002;2023-11-18T18:43:42;3.70;99.90
324;DHT22;149;51.094;17.002;2023-11-18T18:46:10;3.70;99.90
324;DHT22;149;51.094;17.002;2023-11-18T18:48:37;3.70;99.90
324;DHT22;149;51.094;17.002;2023-11-18T18:53:39;3.70;99.90
324;DHT22;149;51.094;17.002;2023-11-18T18:56:07;3.80;99.90
324;DHT22;149;51.094;17.002;2023-11-18T18:58:34;3.80;99.90
324;DHT22;149;51.094;17.002;2023-11-18T19:01:06;3.70;99.90
324;DHT22;149;51.094;17.002;2023-11-18T19:03:33;3.50;99.90
324;DHT22;149;51.094;17.002;2023-11-18T19:06:15;3.60;99.90
324;DHT22;149;51.094;17.002;2023-11-18T19:11:32;3.70;99.90
324;DHT22;149;51.094;17.002;2023-11-18T19:16:35;3.70;99.90
324;DHT22;149;51.094;17.002;2023-11-18T19:19:02;4.00;99.90
324;DHT22;149;51.094;17.002;2023-11-18T19:21:29;3.80;99.90
324;DHT22;149;51.094;17.002;2023-11-18T19:23:57;3.80;99.90
324;DHT22;149;51.094;17.002;2023-11-18T19:29:02;3.80;99.90
324;DHT22;149;51.094;17.002;2023-11-18T19:31:30;3.70;99.90
324;DHT22;149;51.094;17.002;2023-11-18T19:33:57;3.50;99.90
324;DHT22;149;51.094;17.002;2023-11-18T19:39:02;3.60;99.90
324;DHT22;149;51.094;17.002;2023-11-18T19:41:50;3.60;99.90
324;DHT22;149;51.094;17.002;2023-11-18T19:44:32;3.60;99.90
324;DHT22;149;51.094;17.002;2023-11-18T19:46:59;3.70;99.90
324;DHT22;149;51.094;17.002;2023-11-18T19:49:29;3.70;99.90
324;DHT22;149;51.094;17.002;2023-11-18T19:52:03;3.70;99.90
324;DHT22;149;51.094;17.002;2023-11-18T19:54:32;3.70;99.90
324;DHT22;149;51.094;17.002;2023-11-18T19:56:59;3.70;99.90
324;DHT22;149;51.094;17.002;2023-11-18T19:59:26;3.70;99.90
324;DHT22;149;51.094;17.002;2023-11-18T20:01:53;3.60;99.90
324;DHT22;149;51.094;17.002;2023-11-18T20:04:25;3.50;99.90
324;DHT22;149;51.094;17.002;2023-11-18T20:06:52;3.40;99.90
324;DHT22;149;51.094;17.002;2023-11-18T20:09:20;3.50;99.90
324;DHT22;149;51.094;17.002;2023-11-18T20:11:52;3.40;99.90
324;DHT22;149;51.094;17.002;2023-11-18T20:14:19;3.30;99.90
324;DHT22;149;51.094;17.002;2023-11-18T20:16:46;3.50;99.90
324;DHT22;149;51.094;17.002;2023-11-18T20:19:16;3.40;99.90
324;DHT22;149;51.094;17.002;2023-11-18T20:21:43;3.40;99.90
324;DHT22;149;51.094;17.002;2023-11-18T20:24:13;3.40;99.90
324;DHT22;149;51.094;17.002;2023-11-18T20:26:40;3.40;99.90
324;DHT22;149;51.094;17.002;2023-11-18T20:29:07;3.40;99.90
324;DHT22;149;51.094;17.002;2023-11-18T20:31:34;3.20;99.90
324;DHT22;149;51.094;17.002;2023-11-18T20:34:03;3.40;99.90
324;DHT22;149;51.094;17.002;2023-11-18T20:36:31;3.40;99.90
324;DHT22;149;51.094;17.002;2023-11-18T20:38:58;3.20;99.90
324;DHT22;149;51.094;17.002;2023-11-18T20:41:25;3.10;99.90
324;DHT22;149;51.094;17.002;2023-11-18T20:43:55;3.20;99.90
324;DHT22;149;51.094;17.002;2023-11-18T20:46:22;3.20;99.90
324;DHT22;149;51.094;17.002;2023-11-18T20:48:49;3.10;99.90
324;DHT22;149;51.094;17.002;2023-11-18T20:51:17;3.10;99.90